Time;durP1;ratioP1;P1;durP2;ratioP2;P2;SDS_P1;SDS_P2;PMS_P1;PMS_P2;Temp;Humidity;BMP_temperature;BMP_pressure;BME280_temperature;BME280_humidity;BME280_pressure;Samples;Min_cycle;Max_cycle;Signal;HPM_P1;HPM_P2
2022/01/15 00:02:34;;;;;;;28.48;16.33;;;7.10;99.90;;;;;;4886028;28;20558;-96
2022/01/15 00:05:00;;;;;;;29.05;17.52;;;7.10;99.90;;;;;;4913862;28;20042;-95
2022/01/15 00:07:26;;;;;;;27.98;17.13;;;7.10;99.90;;;;;;4995512;28;20109;-94
2022/01/15 00:09:52;;;;;;;35.38;16.92;;;7.00;99.90;;;;;;4975592;28;20270;-94
2022/01/15 00:12:18;;;;;;;28.98;16.38;;;7.00;99.90;;;;;;4983557;28;20052;-96
2022/01/15 00:14:47;;;;;;;33.90;17.55;;;7.00;99.90;;;;;;4988059;28;20068;-95
2022/01/15 00:17:20;;;;;;;32.08;17.33;;;7.00;99.90;;;;;;4969306;28;20135;-96
2022/01/15 00:19:55;;;;;;;31.20;18.35;;;7.00;99.90;;;;;;4995073;28;20538;-95
2022/01/15 00:22:37;;;;;;;;;;;;;;;;;;;;;
2022/01/15 00:25:33;;;;;;;32.15;16.48;;;6.90;99.90;;;;;;5045000;28;20085;-93
2022/01/15 00:28:37;;;;;;;;;;;;;;;;;;;;;
2022/01/15 00:31:20;;;;;;;31.85;17.13;;;7.00;99.90;;;;;;5012894;28;20059;-96
2022/01/15 00:34:23;;;;;;;;;;;;;;;;;;;;;
2022/01/15 00:36:59;;;;;;;34.45;17.17;;;7.00;99.90;;;;;;5009978;28;20331;-93
2022/01/15 00:39:38;;;;;;;33.85;18.02;;;7.00;99.90;;;;;;4989371;28;20224;-96
2022/01/15 00:42:20;;;;;;;39.42;18.50;;;6.90;99.90;;;;;;4972995;28;20124;-96
2022/01/15 00:45:16;;;;;;;35.83;18.23;;;6.90;99.90;;;;;;5008227;28;20139;-96
2022/01/15 00:48:04;;;;;;;35.47;18.47;;;7.00;99.90;;;;;;5026252;28;20101;-96
2022/01/15 00:50:50;;;;;;;27.67;16.35;;;7.00;99.90;;;;;;4993888;28;20044;-94
2022/01/15 00:53:29;;;;;;;32.08;16.10;;;7.10;99.90;;;;;;5004817;28;20048;-96
2022/01/15 00:55:55;;;;;;;29.58;16.58;;;7.00;99.90;;;;;;5017178;28;20048;-95
2022/01/15 01:05:50;;;;;;;30.92;17.35;;;6.90;99.90;;;;;;4903605;28;20160;-96
2022/01/15 01:12:19;;;;;;;29.48;16.70;;;7.00;99.90;;;;;;4889380;29;20059;-96
2022/01/15 01:25:08;;;;;;;;;;;;;;;;;;;;;
2022/01/15 01:28:28;;;;;;;;;;;;;;;;;;;;;
2022/01/15 01:31:12;;;;;;;33.67;16.52;;;6.90;99.90;;;;;;4952308;28;20041;-95
2022/01/15 01:34:04;;;;;;;28.27;15.65;;;6.80;99.90;;;;;;4935253;28;20410;-95
2022/01/15 01:37:13;;;;;;;;;;;;;;;;;;;;;
2022/01/15 01:40:15;;;;;;;27.48;15.18;;;6.80;99.90;;;;;;4965525;28;20061;-95
2022/01/15 01:49:10;;;;;;;30.58;16.75;;;6.80;99.90;;;;;;5006781;28;20066;-95
2022/01/15 01:55:19;;;;;;;;;;;;;;;;;;;;;
2022/01/15 02:06:09;;;;;;;25.45;15.18;;;7.00;99.90;;;;;;4868462;28;20042;-96
2022/01/15 02:12:30;;;;;;;;;;;;;;;;;;;;;
2022/01/15 02:15:17;;;;;;;23.48;14.27;;;6.80;99.90;;;;;;4909523;28;20627;-95
2022/01/15 02:17:56;;;;;;;26.05;14.48;;;6.80;99.90;;;;;;4974662;28;20405;-96
2022/01/15 02:24:25;;;;;;;27.05;14.98;;;6.90;99.90;;;;;;5018010;28;20664;-95
2022/01/15 02:27:37;;;;;;;;;;;;;;;;;;;;;
2022/01/15 02:30:45;;;;;;;;;;;;;;;;;;;;;
2022/01/15 02:33:39;;;;;;;26.17;15.02;;;6.90;99.90;;;;;;5007327;28;21040;-96
2022/01/15 02:36:10;;;;;;;27.00;15.23;;;6.80;99.90;;;;;;5003448;28;20815;-95
2022/01/15 02:38:57;;;;;;;25.77;14.43;;;6.90;99.90;;;;;;5002360;28;20458;-96
2022/01/15 02:41:41;;;;;;;26.67;14.77;;;7.00;99.90;;;;;;5002877;28;20091;-95
2022/01/15 02:44:18;;;;;;;25.65;14.45;;;7.00;99.90;;;;;;5006949;28;20118;-96
2022/01/15 02:57:43;;;;;;;;;;;;;;;;;;;;;
2022/01/15 03:05:12;;;;;;;;;;;;;;;;;;;;;
2022/01/15 03:08:34;;;;;;;29.98;15.60;;;6.90;99.90;;;;;;4919611;28;20063;-95
2022/01/15 03:11:50;;;;;;;26.65;14.93;;;6.80;99.90;;;;;;4969619;28;20079;-96
2022/01/15 03:14:59;;;;;;;25.05;14.70;;;6.80;99.90;;;;;;5005321;28;20584;-96
2022/01/15 03:17:51;;;;;;;37.28;15.35;;;6.90;99.90;;;;;;5008474;28;20133;-95
2022/01/15 03:25:25;;;;;;;;;;;;;;;;;;;;;
2022/01/15 03:28:39;;;;;;;;;;;;;;;;;;;;;
2022/01/15 03:31:38;;;;;;;26.73;13.80;;;6.90;99.90;;;;;;5028567;28;20059;-96
2022/01/15 03:34:28;;;;;;;26.73;14.23;;;6.70;99.90;;;;;;5010609;28;20527;-96
2022/01/15 03:37:29;;;;;;;26.98;14.50;;;6.70;99.90;;;;;;5007831;28;20093;-96
2022/01/15 03:40:31;;;;;;;23.23;13.65;;;6.80;99.90;;;;;;5011333;28;20377;-96
2022/01/15 03:50:20;;;;;;;;;;;;;;;;;;;;;
2022/01/15 03:53:31;;;;;;;;;;;;;;;;;;;;;
2022/01/15 03:57:02;;;;;;;;;;;;;;;;;;;;;
2022/01/15 04:18:06;;;;;;;;;;;;;;;;;;;;;
2022/01/15 04:32:39;;;;;;;15.82;8.50;;;6.70;99.90;;;;;;4920972;28;20090;-96
2022/01/15 04:35:59;;;;;;;17.73;8.95;;;6.60;99.90;;;;;;4859097;29;20181;-96
2022/01/15 05:13:35;;;;;;;17.92;10.15;;;6.60;99.90;;;;;;4839805;29;20554;-96
2022/01/15 05:16:28;;;;;;;18.20;9.77;;;6.50;99.90;;;;;;4834246;29;20288;-96
2022/01/15 05:19:33;;;;;;;20.92;11.15;;;6.50;99.90;;;;;;4863828;28;20154;-96
2022/01/15 05:30:42;;;;;;;;;;;;;;;;;;;;;
2022/01/15 05:34:38;;;;;;;;;;;;;;;;;;;;;
2022/01/15 05:45:41;;;;;;;18.02;10.43;;;6.40;99.90;;;;;;4680438;30;20044;-96
2022/01/15 06:09:49;;;;;;;;;;;;;;;;;;;;;
2022/01/15 06:12:40;;;;;;;18.10;9.60;;;6.30;99.90;;;;;;6098068;23;20064;-95
2022/01/15 06:15:16;;;;;;;19.27;10.75;;;6.30;99.90;;;;;;6068895;23;20080;-95
2022/01/15 06:18:13;;;;;;;;;;;;;;;;;;;;;
2022/01/15 06:21:39;;;;;;;22.33;11.93;;;6.30;99.90;;;;;;6073965;23;20028;-96
2022/01/15 06:24:21;;;;;;;22.95;11.65;;;6.20;99.90;;;;;;6071951;23;20500;-96
2022/01/15 06:26:47;;;;;;;21.02;10.95;;;6.30;99.90;;;;;;6024016;23;20260;-96
2022/01/15 06:29:23;;;;;;;22.35;12.10;;;6.30;99.90;;;;;;6072851;23;20025;-96
2022/01/15 06:31:54;;;;;;;23.73;12.63;;;6.20;99.90;;;;;;6047031;23;20036;-96
2022/01/15 06:34:31;;;;;;;26.45;12.82;;;6.20;99.90;;;;;;6066142;23;20025;-96
2022/01/15 06:40:13;;;;;;;26.38;13.10;;;6.20;99.90;;;;;;6008109;23;20030;-96
2022/01/15 06:43:39;;;;;;;;;;;;;;;;;;;;;
2022/01/15 06:46:38;;;;;;;27.58;13.73;;;6.20;99.90;;;;;;5922697;24;20624;-96
2022/01/15 06:49:37;;;;;;;;;;;;;;;;;;;;;
2022/01/15 06:53:08;;;;;;;;;;;;;;;;;;;;;
2022/01/15 06:59:05;;;;;;;22.98;12.85;;;6.40;99.90;;;;;;6085121;23;20338;-94
2022/01/15 07:01:47;;;;;;;22.85;12.05;;;6.40;99.90;;;;;;6069120;23;20048;-93
2022/01/15 07:04:36;;;;;;;24.65;12.57;;;6.40;99.90;;;;;;6061521;23;20021;-94
2022/01/15 07:07:22;;;;;;;;;;;;;;;;;;;;;
2022/01/15 07:10:51;;;;;;;;;;;;;;;;;;;;;
2022/01/15 07:13:25;;;;;;;23.42;12.55;;;6.30;99.90;;;;;;6086587;23;20719;-94
2022/01/15 07:17:05;;;;;;;;;;;;;;;;;;;;;
2022/01/15 07:30:52;;;;;;;26.25;12.68;;;6.40;99.90;;;;;;6088687;23;20048;-94
2022/01/15 07:33:57;;;;;;;25.20;13.15;;;6.40;99.90;;;;;;6069092;23;20022;-95
2022/01/15 07:40:10;;;;;;;18.88;11.30;;;6.30;99.90;;;;;;6006980;23;20036;-95
2022/01/15 07:46:45;;;;;;;25.70;12.95;;;6.30;99.90;;;;;;6018462;23;20061;-96
2022/01/15 07:49:32;;;;;;;21.02;11.75;;;6.30;99.90;;;;;;5904193;23;20021;-94
2022/01/15 07:52:14;;;;;;;21.02;11.55;;;6.30;99.90;;;;;;5877984;23;20326;-93
2022/01/15 07:58:52;;;;;;;18.90;11.05;;;6.30;99.90;;;;;;5907211;23;20068;-96
2022/01/15 08:01:36;;;;;;;19.60;11.52;;;6.30;99.90;;;;;;5897750;23;20054;-96
2022/01/15 08:04:18;;;;;;;;;;;;;;;;;;;;;
2022/01/15 08:07:20;;;;;;;;;;;;;;;;;;;;;
2022/01/15 08:10:06;;;;;;;20.35;11.85;;;6.30;99.90;;;;;;5922962;23;20099;-96
2022/01/15 08:12:41;;;;;;;20.17;12.25;;;6.20;99.90;;;;;;5984993;23;20022;-95
2022/01/15 08:15:25;;;;;;;23.60;12.82;;;6.20;99.90;;;;;;5985408;23;20534;-96
2022/01/15 08:17:54;;;;;;;20.25;12.15;;;6.30;99.90;;;;;;6064606;23;20504;-96
2022/01/15 08:26:14;;;;;;;25.95;15.73;;;6.30;99.90;;;;;;6073901;23;20025;-96
2022/01/15 08:29:12;;;;;;;25.35;15.20;;;6.30;99.90;;;;;;6064546;23;20021;-92
2022/01/15 08:31:59;;;;;;;23.77;14.60;;;6.20;99.90;;;;;;6102821;23;20084;-93
2022/01/15 08:34:57;;;;;;;27.13;13.32;;;6.20;99.90;;;;;;6027633;23;20516;-96
2022/01/15 08:37:37;;;;;;;20.15;12.55;;;6.00;99.90;;;;;;6070578;23;20024;-94
2022/01/15 08:40:19;;;;;;;17.65;11.48;;;6.10;99.90;;;;;;6044866;23;20161;-92
2022/01/15 08:43:03;;;;;;;19.38;11.85;;;6.10;99.90;;;;;;6061400;23;20068;-92
2022/01/15 08:45:50;;;;;;;18.55;11.90;;;6.10;99.90;;;;;;6065843;23;20111;-92
2022/01/15 08:48:19;;;;;;;19.77;11.88;;;6.10;99.90;;;;;;6066089;23;20382;-94
2022/01/15 08:50:51;;;;;;;21.15;12.43;;;6.20;99.90;;;;;;6041084;23;20021;-93
2022/01/15 08:53:22;;;;;;;18.25;11.52;;;6.10;99.90;;;;;;6058122;23;20028;-93
2022/01/15 08:55:57;;;;;;;15.38;10.05;;;6.10;99.90;;;;;;6040283;23;20026;-94
2022/01/15 08:58:27;;;;;;;15.98;10.38;;;6.10;99.90;;;;;;6039870;23;20021;-94
2022/01/15 09:00:58;;;;;;;18.70;10.27;;;6.10;99.90;;;;;;6061657;23;20020;-92
2022/01/15 09:03:37;;;;;;;;;;;;;;;;;;;;;
2022/01/15 09:06:09;;;;;;;15.35;10.27;;;6.10;99.90;;;;;;6083742;23;20847;-93
2022/01/15 09:08:45;;;;;;;16.92;11.95;;;6.20;99.90;;;;;;6063559;23;20025;-94
2022/01/15 09:11:11;;;;;;;18.05;12.55;;;6.00;99.90;;;;;;6059369;23;20018;-93
2022/01/15 09:14:15;;;;;;;;;;;;;;;;;;;;;
2022/01/15 09:16:41;;;;;;;20.15;13.32;;;6.10;99.90;;;;;;6064296;23;20014;-92
2022/01/15 09:19:11;;;;;;;20.83;13.68;;;6.10;99.90;;;;;;6057229;23;20122;-93
2022/01/15 09:21:47;;;;;;;19.05;14.15;;;6.10;99.90;;;;;;6060019;23;20029;-93
2022/01/15 09:24:13;;;;;;;25.27;14.52;;;6.10;99.90;;;;;;6061386;23;20178;-93
2022/01/15 09:30:12;;;;;;;21.95;14.15;;;6.10;99.90;;;;;;6061936;23;20057;-94
2022/01/15 09:32:38;;;;;;;20.98;14.90;;;6.20;99.90;;;;;;6087393;23;20035;-93
2022/01/15 09:35:05;;;;;;;20.92;14.90;;;6.00;99.90;;;;;;6055786;23;20434;-92
2022/01/15 09:37:31;;;;;;;23.17;16.27;;;6.20;99.90;;;;;;6077485;23;20666;-91
2022/01/15 09:39:59;;;;;;;24.20;16.75;;;6.20;99.90;;;;;;6076796;23;20450;-91
2022/01/15 09:42:27;;;;;;;20.85;15.07;;;6.10;99.90;;;;;;6039835;23;20782;-90
2022/01/15 09:44:59;;;;;;;22.10;15.48;;;6.10;99.90;;;;;;6050023;23;20025;-90
2022/01/15 09:47:28;;;;;;;24.35;16.52;;;6.20;99.90;;;;;;6053045;23;20022;-92
2022/01/15 09:49:59;;;;;;;23.30;15.98;;;6.10;99.90;;;;;;6051397;23;20446;-91
2022/01/15 09:52:39;;;;;;;22.85;16.35;;;6.10;99.90;;;;;;6050612;23;20083;-94
2022/01/15 09:55:10;;;;;;;22.42;16.17;;;6.10;99.90;;;;;;6052150;23;20025;-92
2022/01/15 09:57:43;;;;;;;23.00;16.73;;;6.10;99.90;;;;;;6054833;23;20021;-93
2022/01/15 10:00:15;;;;;;;24.15;17.23;;;6.20;99.90;;;;;;6048959;23;20025;-91
2022/01/15 10:02:49;;;;;;;23.85;16.55;;;6.20;99.90;;;;;;6050011;23;20686;-90
2022/01/15 10:05:19;;;;;;;26.55;17.63;;;6.20;99.90;;;;;;6070426;23;20022;-91
2022/01/15 10:08:03;;;;;;;24.55;16.60;;;6.10;99.90;;;;;;6039694;23;20595;-91
2022/01/15 10:10:39;;;;;;;25.07;18.33;;;6.20;99.90;;;;;;6069203;23;20543;-92
2022/01/15 10:13:26;;;;;;;27.30;18.17;;;6.20;99.90;;;;;;6052195;23;20072;-90
2022/01/15 10:16:05;;;;;;;26.38;18.63;;;6.10;99.90;;;;;;6041954;23;20075;-91
2022/01/15 10:18:42;;;;;;;26.77;18.55;;;6.10;99.90;;;;;;6057491;23;20076;-92
2022/01/15 10:21:37;;;;;;;25.88;17.58;;;6.10;99.90;;;;;;6048743;23;20022;-91
2022/01/15 10:24:08;;;;;;;23.70;17.63;;;6.10;99.90;;;;;;6044240;23;20029;-91
2022/01/15 10:26:36;;;;;;;26.02;18.67;;;6.10;99.90;;;;;;6043837;23;20426;-93
2022/01/15 10:29:07;;;;;;;26.40;18.63;;;6.10;99.90;;;;;;6041587;23;20813;-91
2022/01/15 10:31:45;;;;;;;26.80;19.30;;;6.10;99.90;;;;;;6049142;23;20473;-91
2022/01/15 10:34:53;;;;;;;27.13;19.05;;;6.10;99.90;;;;;;6049960;23;20013;-93
2022/01/15 10:37:25;;;;;;;26.60;18.67;;;6.00;99.90;;;;;;5997644;23;20916;-92
2022/01/15 10:40:15;;;;;;;27.00;19.02;;;6.10;99.90;;;;;;5998178;23;20081;-92
2022/01/15 10:42:53;;;;;;;28.75;18.52;;;6.00;99.90;;;;;;6053553;23;20082;-93
2022/01/15 10:48:39;;;;;;;26.42;18.27;;;6.10;99.90;;;;;;6084694;23;20193;-91
2022/01/15 10:51:16;;;;;;;39.50;19.27;;;6.00;99.90;;;;;;6044320;23;20028;-91
2022/01/15 10:53:55;;;;;;;28.80;19.02;;;6.10;99.90;;;;;;6041011;23;20021;-92
2022/01/15 10:56:20;;;;;;;26.85;19.60;;;6.10;99.90;;;;;;6075006;23;20112;-90
2022/01/15 10:59:10;;;;;;;27.60;18.67;;;6.10;99.90;;;;;;6049061;23;20024;-93
2022/01/15 11:01:36;;;;;;;25.10;17.77;;;6.20;99.90;;;;;;6045854;23;20401;-89
2022/01/15 11:04:02;;;;;;;25.63;17.17;;;6.10;99.90;;;;;;6065979;23;20404;-90
2022/01/15 11:06:40;;;;;;;26.88;18.23;;;6.00;99.90;;;;;;6020594;23;20346;-93
2022/01/15 11:09:09;;;;;;;26.95;18.92;;;6.00;99.90;;;;;;6033176;23;20033;-93
2022/01/15 11:11:56;;;;;;;25.52;17.35;;;6.00;99.90;;;;;;6054689;23;20361;-93
2022/01/15 11:14:22;;;;;;;27.95;18.73;;;5.80;99.90;;;;;;6048482;23;20031;-94
2022/01/15 11:16:54;;;;;;;24.17;16.60;;;5.80;99.90;;;;;;6054240;23;20022;-93
2022/01/15 11:19:24;;;;;;;27.90;17.55;;;5.80;99.90;;;;;;6060752;23;20028;-93
2022/01/15 11:22:07;;;;;;;26.35;18.27;;;5.80;99.90;;;;;;6062916;23;20029;-94
2022/01/15 11:24:42;;;;;;;28.15;18.17;;;5.90;99.90;;;;;;6060862;23;20315;-92
2022/01/15 11:27:13;;;;;;;27.10;18.02;;;5.90;99.90;;;;;;6062745;23;20017;-93
2022/01/15 11:29:45;;;;;;;26.10;17.77;;;6.00;99.90;;;;;;6025441;23;20307;-92
2022/01/15 11:32:15;;;;;;;35.58;19.02;;;6.00;99.90;;;;;;6028837;23;20029;-91
2022/01/15 11:34:44;;;;;;;27.52;17.98;;;6.00;99.90;;;;;;6046921;23;20021;-91
2022/01/15 11:40:53;;;;;;;30.60;18.00;;;6.00;99.90;;;;;;6008255;23;20489;-93
2022/01/15 11:43:25;;;;;;;25.25;17.88;;;6.10;99.90;;;;;;6033132;23;20056;-92
2022/01/15 11:45:53;;;;;;;25.63;17.63;;;6.00;99.90;;;;;;6046130;23;20096;-92
2022/01/15 11:48:26;;;;;;;24.33;16.38;;;6.00;99.90;;;;;;6048479;23;20104;-90
2022/01/15 11:51:14;;;;;;;23.40;16.58;;;6.10;99.90;;;;;;6019764;23;20825;-92
2022/01/15 11:54:00;;;;;;;23.10;17.17;;;6.00;99.90;;;;;;6054813;23;20394;-92
2022/01/15 11:56:28;;;;;;;27.60;17.58;;;6.00;99.90;;;;;;6060199;23;20064;-92
2022/01/15 11:59:17;;;;;;;24.92;18.33;;;5.90;99.90;;;;;;6069386;23;20021;-92
2022/01/15 12:01:43;;;;;;;25.90;17.52;;;5.90;99.90;;;;;;6070082;23;20031;-92
2022/01/15 12:04:30;;;;;;;24.95;17.83;;;5.80;99.90;;;;;;6043095;23;20021;-92
2022/01/15 12:07:06;;;;;;;24.42;17.90;;;5.80;99.90;;;;;;6066661;23;20753;-93
2022/01/15 12:09:45;;;;;;;23.33;17.23;;;5.80;99.90;;;;;;6075752;23;20030;-94
2022/01/15 12:12:18;;;;;;;24.38;17.95;;;5.80;99.90;;;;;;6068894;23;20075;-92
2022/01/15 12:14:52;;;;;;;27.73;19.13;;;5.90;99.90;;;;;;6067012;23;20018;-92
2022/01/15 12:17:31;;;;;;;25.70;19.17;;;5.90;99.90;;;;;;6061095;23;20088;-92
2022/01/15 12:20:03;;;;;;;25.85;18.83;;;5.90;99.90;;;;;;6069043;23;20392;-93
2022/01/15 12:22:39;;;;;;;25.63;18.02;;;6.00;99.90;;;;;;6072585;23;20040;-92
2022/01/15 12:25:13;;;;;;;23.88;17.50;;;5.90;99.90;;;;;;6069692;23;20028;-93
2022/01/15 12:27:39;;;;;;;;;;;5.90;99.90;;;;;;6090782;23;20025;-91
2022/01/15 12:30:21;;;;;;;23.65;17.17;;;6.00;99.90;;;;;;6069043;23;20000;-92
2022/01/15 12:32:55;;;;;;;24.45;17.63;;;5.90;99.90;;;;;;6067985;23;20390;-91
2022/01/15 12:35:33;;;;;;;26.58;18.00;;;6.00;99.90;;;;;;6067449;23;20022;-91
2022/01/15 12:38:10;;;;;;;26.90;18.60;;;6.00;99.90;;;;;;6067039;23;20030;-93
2022/01/15 12:40:41;;;;;;;25.27;18.63;;;6.00;99.90;;;;;;6063777;23;20022;-92
2022/01/15 12:43:23;;;;;;;24.10;16.88;;;6.10;99.90;;;;;;6067069;23;20743;-94
2022/01/15 12:46:03;;;;;;;25.50;17.55;;;6.10;99.90;;;;;;6049143;23;20026;-92
2022/01/15 12:48:34;;;;;;;25.13;17.92;;;5.90;99.90;;;;;;6069156;23;20022;-91
2022/01/15 12:51:22;;;;;;;22.90;16.80;;;5.80;99.90;;;;;;6069714;23;20480;-90
2022/01/15 12:53:57;;;;;;;23.67;17.92;;;5.80;99.90;;;;;;6065275;23;20467;-89
2022/01/15 12:56:27;;;;;;;22.83;17.33;;;5.90;99.90;;;;;;6061109;23;20028;-91
2022/01/15 12:58:54;;;;;;;23.75;17.23;;;5.90;99.90;;;;;;6091648;23;20028;-92
2022/01/15 13:01:22;;;;;;;25.65;18.92;;;6.00;99.90;;;;;;6066175;23;20100;-93
2022/01/15 13:03:52;;;;;;;23.98;17.92;;;6.00;99.90;;;;;;6066489;23;20590;-90
2022/01/15 13:06:25;;;;;;;24.95;19.23;;;6.00;99.90;;;;;;6040173;23;20021;-93
2022/01/15 13:09:03;;;;;;;25.05;18.75;;;6.00;99.90;;;;;;6039709;23;20153;-93
2022/01/15 13:11:31;;;;;;;26.58;19.25;;;6.00;99.90;;;;;;6057869;23;20031;-92
2022/01/15 13:14:04;;;;;;;26.10;20.05;;;6.00;99.90;;;;;;6059063;23;20958;-91
2022/01/15 13:16:33;;;;;;;27.20;21.03;;;6.00;99.90;;;;;;6031977;23;20025;-92
2022/01/15 13:19:05;;;;;;;28.90;21.05;;;5.90;99.90;;;;;;6058293;23;21113;-92
2022/01/15 13:21:39;;;;;;;29.13;21.98;;;5.90;99.90;;;;;;6085223;23;20017;-92
2022/01/15 13:24:20;;;;;;;29.23;22.08;;;5.80;99.90;;;;;;6058847;23;20021;-92
2022/01/15 13:27:19;;;;;;;30.15;22.20;;;5.90;99.90;;;;;;6066156;23;20163;-91
2022/01/15 13:29:48;;;;;;;28.23;22.48;;;5.90;99.90;;;;;;6046435;23;20051;-88
2022/01/15 13:32:14;;;;;;;28.60;23.25;;;5.90;99.90;;;;;;6055941;23;20018;-90
2022/01/15 13:34:44;;;;;;;32.45;25.42;;;5.90;99.90;;;;;;6065017;23;20036;-88
2022/01/15 13:37:22;;;;;;;31.40;24.77;;;5.90;99.90;;;;;;6053758;23;20033;-90
2022/01/15 13:39:49;;;;;;;33.72;25.73;;;5.90;99.90;;;;;;6059464;23;20509;-91
2022/01/15 13:42:16;;;;;;;32.15;24.60;;;5.90;99.90;;;;;;6006724;23;20025;-92
2022/01/15 13:44:42;;;;;;;32.20;24.83;;;5.90;99.90;;;;;;6083026;23;20018;-93
2022/01/15 13:47:13;;;;;;;32.05;24.45;;;5.80;99.90;;;;;;6053621;23;20026;-91
2022/01/15 13:55:37;;;;;;;33.53;24.50;;;5.80;99.90;;;;;;6075737;23;20033;-93
2022/01/15 13:58:21;;;;;;;33.40;25.20;;;5.80;99.90;;;;;;6083500;23;20021;-90
2022/01/15 14:00:47;;;;;;;34.00;25.23;;;5.80;99.90;;;;;;6076787;23;20716;-91
2022/01/15 14:03:13;;;;;;;32.58;24.17;;;5.70;99.90;;;;;;6052794;23;20032;-91
2022/01/15 14:05:43;;;;;;;31.80;25.15;;;5.60;99.90;;;;;;6050997;23;20060;-89
2022/01/15 14:08:11;;;;;;;31.45;23.73;;;5.50;99.90;;;;;;6029091;23;20050;-90
2022/01/15 14:10:39;;;;;;;32.42;23.67;;;5.70;99.90;;;;;;6078761;23;20025;-91
2022/01/15 14:13:07;;;;;;;30.63;23.70;;;5.70;99.90;;;;;;6062322;23;20361;-90
2022/01/15 14:15:44;;;;;;;32.10;24.33;;;5.70;99.90;;;;;;6060603;23;20021;-91
2022/01/15 14:18:29;;;;;;;33.00;24.65;;;5.80;99.90;;;;;;6056701;23;20356;-93
2022/01/15 14:23:42;;;;;;;36.65;26.13;;;5.80;99.90;;;;;;6079475;23;20033;-91
2022/01/15 14:26:26;;;;;;;37.03;28.23;;;5.70;99.90;;;;;;6064404;23;20390;-90
2022/01/15 14:28:58;;;;;;;36.25;26.10;;;5.70;99.90;;;;;;6063338;23;20671;-91
2022/01/15 14:31:24;;;;;;;37.53;27.50;;;5.80;99.90;;;;;;6087795;23;20100;-90
2022/01/15 14:33:57;;;;;;;34.88;25.92;;;5.70;99.90;;;;;;6033594;23;20517;-89
2022/01/15 14:36:24;;;;;;;35.33;26.00;;;5.70;99.90;;;;;;6061308;23;20124;-92
2022/01/15 14:39:04;;;;;;;34.58;26.85;;;5.70;99.90;;;;;;6063866;23;20029;-93
2022/01/15 14:41:37;;;;;;;33.78;25.70;;;5.70;99.90;;;;;;6047630;23;20466;-90
2022/01/15 14:44:21;;;;;;;35.63;25.83;;;5.60;99.90;;;;;;6066642;23;20479;-89
2022/01/15 14:46:50;;;;;;;37.85;27.23;;;5.60;99.90;;;;;;6088822;23;20873;-92
2022/01/15 14:49:16;;;;;;;38.80;29.10;;;5.60;99.90;;;;;;6038475;23;20080;-93
2022/01/15 14:51:42;;;;;;;37.13;26.75;;;5.60;99.90;;;;;;6057698;23;20025;-91
2022/01/15 14:54:10;;;;;;;36.38;28.10;;;5.60;99.90;;;;;;6057475;23;20073;-94
2022/01/15 14:56:38;;;;;;;37.08;27.85;;;5.60;99.90;;;;;;6035167;23;20307;-91
2022/01/15 14:59:04;;;;;;;41.72;28.95;;;5.60;99.90;;;;;;6035226;23;20018;-90
2022/01/15 15:01:34;;;;;;;38.45;29.13;;;5.60;99.90;;;;;;6059350;23;20765;-91
2022/01/15 15:04:04;;;;;;;39.50;28.25;;;5.60;99.90;;;;;;6063713;23;20036;-92
2022/01/15 15:06:52;;;;;;;34.40;26.45;;;5.60;99.90;;;;;;6064376;23;20805;-92
2022/01/15 15:09:20;;;;;;;37.90;26.75;;;5.60;99.90;;;;;;6046928;23;20032;-94
2022/01/15 15:11:50;;;;;;;41.03;27.48;;;5.50;99.90;;;;;;6044284;23;20105;-95
2022/01/15 15:14:48;;;;;;;36.65;26.92;;;5.50;99.90;;;;;;6069267;23;20365;-94
2022/01/15 15:17:14;;;;;;;40.65;28.90;;;5.40;99.90;;;;;;6044285;23;20017;-92
2022/01/15 15:19:44;;;;;;;38.70;27.90;;;5.50;99.90;;;;;;6043904;23;20337;-91
2022/01/15 15:22:20;;;;;;;37.42;28.58;;;5.40;99.90;;;;;;6040589;23;20068;-93
2022/01/15 15:24:49;;;;;;;42.63;29.65;;;5.40;99.90;;;;;;6062992;23;20017;-91
2022/01/15 15:27:20;;;;;;;37.58;27.27;;;5.50;99.90;;;;;;6066931;23;20336;-93
2022/01/15 15:29:47;;;;;;;39.17;29.55;;;5.50;99.90;;;;;;6070681;23;20125;-94
2022/01/15 15:32:25;;;;;;;39.15;28.60;;;5.50;99.90;;;;;;6069233;23;20021;-94
2022/01/15 15:35:14;;;;;;;38.75;26.65;;;5.50;99.90;;;;;;6067266;23;20057;-92
2022/01/15 15:37:51;;;;;;;36.20;26.98;;;5.40;99.90;;;;;;6025468;23;20013;-93
2022/01/15 15:40:18;;;;;;;40.60;26.63;;;5.40;99.90;;;;;;6086689;23;20513;-93
2022/01/15 15:42:44;;;;;;;36.67;26.83;;;5.50;99.90;;;;;;6065541;23;20028;-92
2022/01/15 15:45:13;;;;;;;39.30;27.55;;;5.40;99.90;;;;;;6068646;23;20033;-91
2022/01/15 15:47:50;;;;;;;39.80;25.63;;;5.40;99.90;;;;;;6066908;23;20252;-91
2022/01/15 15:50:27;;;;;;;41.30;28.10;;;5.40;99.90;;;;;;6062000;23;20225;-93
2022/01/15 15:53:02;;;;;;;37.90;27.08;;;5.40;99.90;;;;;;6047888;23;20025;-92
2022/01/15 15:55:33;;;;;;;36.78;26.80;;;5.40;99.90;;;;;;6068965;23;20089;-94
2022/01/15 15:58:08;;;;;;;37.20;26.73;;;5.40;99.90;;;;;;6049171;23;20049;-92
2022/01/15 16:00:38;;;;;;;39.22;26.92;;;5.40;99.90;;;;;;6070010;23;20716;-93
2022/01/15 16:03:04;;;;;;;38.75;26.70;;;5.40;99.90;;;;;;6065485;23;20096;-92
2022/01/15 16:05:33;;;;;;;37.85;26.98;;;5.40;99.90;;;;;;6064597;23;20028;-93
2022/01/15 16:08:02;;;;;;;39.00;26.85;;;5.40;99.90;;;;;;6006293;23;20025;-92
2022/01/15 16:10:28;;;;;;;40.97;27.98;;;5.40;99.90;;;;;;6012385;23;20528;-93
2022/01/15 16:12:54;;;;;;;42.20;28.13;;;5.40;99.90;;;;;;5989104;23;20029;-94
2022/01/15 16:15:25;;;;;;;47.28;30.55;;;5.40;99.90;;;;;;6006890;23;20352;-93
2022/01/15 16:18:02;;;;;;;43.72;30.85;;;5.40;99.90;;;;;;6012630;23;20341;-94
2022/01/15 16:20:31;;;;;;;44.72;30.08;;;5.40;99.90;;;;;;5988509;23;20731;-95
2022/01/15 16:22:57;;;;;;;46.35;29.30;;;5.40;99.90;;;;;;5992028;23;20057;-94
2022/01/15 16:25:46;;;;;;;44.53;29.85;;;5.40;99.90;;;;;;6022044;23;20017;-94
2022/01/15 16:28:21;;;;;;;47.53;32.17;;;5.30;99.90;;;;;;5995892;23;20662;-92
2022/01/15 16:30:47;;;;;;;45.20;29.40;;;5.30;99.90;;;;;;6014581;23;20025;-92
2022/01/15 16:33:25;;;;;;;48.92;30.17;;;5.40;99.90;;;;;;6007196;23;20296;-92
2022/01/15 16:35:56;;;;;;;47.85;30.55;;;5.40;99.90;;;;;;5989392;23;20064;-91
2022/01/15 16:38:31;;;;;;;49.45;31.25;;;5.30;99.90;;;;;;6005753;23;20346;-91
2022/01/15 16:40:57;;;;;;;48.53;29.85;;;5.40;99.90;;;;;;6008010;23;20212;-91
2022/01/15 16:44:04;;;;;;;52.65;31.33;;;5.40;99.90;;;;;;5984332;23;20517;-93
2022/01/15 16:46:44;;;;;;;56.17;31.30;;;5.30;99.90;;;;;;6003966;23;20039;-93
2022/01/15 16:49:20;;;;;;;51.65;30.70;;;5.30;99.90;;;;;;6033173;23;20018;-93
2022/01/15 16:51:59;;;;;;;48.92;29.27;;;5.30;99.90;;;;;;6008238;23;20352;-94
2022/01/15 16:55:00;;;;;;;52.38;28.15;;;5.30;99.90;;;;;;6004891;23;20862;-93
2022/01/15 16:57:33;;;;;;;46.88;28.60;;;5.30;99.90;;;;;;6004418;23;20018;-92
2022/01/15 16:59:59;;;;;;;52.95;30.67;;;5.30;99.90;;;;;;6005688;23;20727;-92
2022/01/15 17:02:34;;;;;;;47.58;28.70;;;5.30;99.90;;;;;;5986414;23;20022;-90
2022/01/15 17:05:03;;;;;;;47.88;28.20;;;5.30;99.90;;;;;;6015836;23;20025;-92
2022/01/15 17:07:30;;;;;;;54.15;27.50;;;5.30;99.90;;;;;;6026431;23;20069;-93
2022/01/15 17:09:56;;;;;;;42.40;26.98;;;5.20;99.90;;;;;;6060921;23;20028;-92
2022/01/15 17:12:25;;;;;;;56.65;29.05;;;5.20;99.90;;;;;;6043025;23;20025;-91
2022/01/15 17:14:51;;;;;;;42.10;25.98;;;5.20;99.90;;;;;;5992364;23;20027;-92
2022/01/15 17:17:28;;;;;;;47.95;27.05;;;5.30;99.90;;;;;;5958051;23;20019;-92
2022/01/15 17:20:08;;;;;;;46.15;25.27;;;5.20;99.90;;;;;;5962436;23;20044;-92
2022/01/15 17:22:42;;;;;;;52.10;26.40;;;5.20;99.90;;;;;;5983141;23;20019;-93
2022/01/15 17:25:14;;;;;;;43.05;24.88;;;5.20;99.90;;;;;;5981409;23;20019;-91
2022/01/15 17:27:43;;;;;;;43.67;24.90;;;5.20;99.90;;;;;;5980502;23;20026;-90
2022/01/15 17:30:14;;;;;;;48.04;26.00;;;5.30;99.90;;;;;;4919196;23;10001533;-91
2022/01/15 17:32:51;;;;;;;58.65;27.95;;;5.30;99.90;;;;;;5952877;23;20042;-93
2022/01/15 17:35:26;;;;;;;50.63;26.63;;;5.20;99.90;;;;;;5976214;23;20392;-93
2022/01/15 17:37:57;;;;;;;51.22;24.90;;;5.10;99.90;;;;;;5956431;23;20608;-93
2022/01/15 17:40:25;;;;;;;45.45;25.25;;;5.10;99.90;;;;;;5961702;23;20827;-92
2022/01/15 17:42:56;;;;;;;54.03;24.70;;;5.10;99.90;;;;;;5961157;23;20050;-93
2022/01/15 17:45:22;;;;;;;61.03;26.95;;;5.10;99.90;;;;;;5979116;23;20022;-92
2022/01/15 17:47:55;;;;;;;81.90;27.10;;;5.10;99.90;;;;;;6010208;23;20019;-92
2022/01/15 17:50:26;;;;;;;54.90;25.90;;;5.00;99.90;;;;;;5983002;23;20345;-92
2022/01/15 17:52:55;;;;;;;62.22;26.52;;;5.10;99.90;;;;;;6007612;23;20030;-93
2022/01/15 17:55:34;;;;;;;60.65;27.88;;;5.10;99.90;;;;;;5983447;23;20714;-93
2022/01/15 17:58:03;;;;;;;56.80;25.10;;;5.00;99.90;;;;;;5981910;23;20027;-92
2022/01/15 18:00:48;;;;;;;69.68;27.33;;;5.00;99.90;;;;;;5960877;23;20031;-94
2022/01/15 18:03:47;;;;;;;62.75;27.30;;;5.00;99.90;;;;;;5981776;23;20030;-93
2022/01/15 18:06:18;;;;;;;80.80;28.75;;;5.00;99.90;;;;;;5964254;23;20026;-94
2022/01/15 18:08:44;;;;;;;102.55;30.35;;;5.00;99.90;;;;;;5979625;23;20027;-93
2022/01/15 18:11:33;;;;;;;74.53;28.13;;;5.00;99.90;;;;;;5971671;23;20087;-94